Time;durP1;ratioP1;P1;durP2;ratioP2;P2;SDS_P1;SDS_P2;PMS_P1;PMS_P2;Temp;Humidity;BMP_temperature;BMP_pressure;BME280_temperature;BME280_humidity;BME280_pressure;Samples;Min_cycle;Max_cycle;Signal;HPM_P1;HPM_P2
2021/01/31 00:01:11;;;;;;;12.60;5.50;;;0.40;99.90;;;;;;4994986;28;20478;-68
2021/01/31 00:03:38;;;;;;;12.83;5.77;;;0.40;99.90;;;;;;4957576;28;20440;-68
2021/01/31 00:06:05;;;;;;;3.67;3.37;;;0.50;99.90;;;;;;4972210;28;20494;-68
2021/01/31 00:08:33;;;;;;;4.97;3.60;;;0.40;99.90;;;;;;4990193;28;20452;-68
2021/01/31 00:11:00;;;;;;;3.97;3.50;;;0.40;99.90;;;;;;4994152;28;20448;-68
2021/01/31 00:13:28;;;;;;;5.80;3.40;;;0.30;99.90;;;;;;4995247;28;20482;-68
2021/01/31 00:15:56;;;;;;;6.57;4.83;;;0.40;99.90;;;;;;4991699;28;20485;-67
2021/01/31 00:18:26;;;;;;;3.77;3.03;;;0.30;99.90;;;;;;4992294;28;20474;-67
2021/01/31 00:20:55;;;;;;;7.93;4.20;;;0.30;99.90;;;;;;4990975;28;21041;-67
2021/01/31 00:23:23;;;;;;;4.70;4.13;;;0.30;99.90;;;;;;4989053;28;20568;-67
2021/01/31 00:25:50;;;;;;;4.03;3.67;;;0.20;99.90;;;;;;4989854;28;20592;-68
2021/01/31 00:28:20;;;;;;;6.10;4.50;;;0.20;99.90;;;;;;4986899;28;20573;-67
2021/01/31 00:30:47;;;;;;;12.97;4.77;;;0.20;99.90;;;;;;4993545;28;20478;-70
2021/01/31 00:33:16;;;;;;;1.87;1.77;;;0.10;99.90;;;;;;4990520;28;20523;-68
2021/01/31 00:35:43;;;;;;;3.90;3.50;;;0.20;99.90;;;;;;4993829;28;20521;-68
2021/01/31 00:38:11;;;;;;;3.63;3.33;;;0.20;99.90;;;;;;4995128;28;20538;-68
2021/01/31 00:40:38;;;;;;;4.03;2.70;;;0.20;99.90;;;;;;4992216;28;20459;-68
2021/01/31 00:43:05;;;;;;;4.10;3.07;;;0.20;99.90;;;;;;4997331;28;20545;-68
2021/01/31 00:45:33;;;;;;;6.20;4.13;;;0.20;99.90;;;;;;4990194;28;20530;-68
2021/01/31 00:47:59;;;;;;;5.67;3.33;;;0.20;99.90;;;;;;4997653;28;20891;-68
2021/01/31 00:50:28;;;;;;;3.77;2.40;;;0.20;99.90;;;;;;4981677;28;20462;-68
2021/01/31 00:52:55;;;;;;;10.43;3.57;;;0.00;99.90;;;;;;4995475;28;20938;-69
2021/01/31 00:55:22;;;;;;;7.37;3.87;;;0.00;99.90;;;;;;4978957;28;20490;-68
2021/01/31 00:57:50;;;;;;;4.07;2.97;;;0.00;99.90;;;;;;4994884;28;20526;-69
2021/01/31 01:00:20;;;;;;;2.40;2.20;;;-0.10;99.90;;;;;;4987474;28;20587;-69
2021/01/31 01:02:48;;;;;;;5.17;4.63;;;0.10;99.90;;;;;;4995889;28;20489;-67
2021/01/31 01:05:16;;;;;;;3.97;2.80;;;0.10;99.90;;;;;;4994880;28;20564;-68
2021/01/31 01:07:43;;;;;;;3.83;2.93;;;0.00;99.90;;;;;;4998314;28;20575;-68
2021/01/31 01:10:14;;;;;;;6.63;2.80;;;0.00;99.90;;;;;;4988490;28;20465;-68
2021/01/31 01:12:40;;;;;;;4.93;2.67;;;0.00;99.90;;;;;;4991318;28;21031;-68
2021/01/31 01:15:10;;;;;;;2.93;2.50;;;0.10;99.90;;;;;;4980729;28;20490;-67
2021/01/31 01:17:37;;;;;;;10.33;4.37;;;0.00;99.90;;;;;;4990158;28;20440;-68
2021/01/31 01:20:06;;;;;;;4.73;2.70;;;0.00;99.90;;;;;;4975666;28;20476;-68
2021/01/31 01:22:34;;;;;;;6.03;3.73;;;0.00;99.90;;;;;;4986404;28;20932;-67
2021/01/31 01:25:02;;;;;;;6.90;4.63;;;0.00;99.90;;;;;;4990597;28;20474;-68
2021/01/31 01:27:30;;;;;;;5.90;5.30;;;-0.10;99.90;;;;;;4992955;28;20578;-70
2021/01/31 01:29:57;;;;;;;5.90;4.23;;;-0.20;99.90;;;;;;4997611;28;20565;-67
2021/01/31 01:32:24;;;;;;;5.47;4.27;;;-0.20;99.90;;;;;;4990560;28;21069;-67
2021/01/31 01:34:51;;;;;;;6.60;5.80;;;-0.10;99.90;;;;;;4995787;28;20514;-67
2021/01/31 01:37:18;;;;;;;8.00;4.97;;;-0.10;99.90;;;;;;4983763;28;20518;-68
2021/01/31 01:39:45;;;;;;;9.17;5.83;;;-0.20;99.90;;;;;;5000715;28;20517;-66
2021/01/31 01:42:13;;;;;;;5.17;4.40;;;-0.20;99.90;;;;;;4993757;28;20493;-67
2021/01/31 01:44:40;;;;;;;4.57;3.53;;;-0.10;99.90;;;;;;4992775;28;20533;-68
2021/01/31 01:47:11;;;;;;;6.37;4.67;;;-0.20;99.90;;;;;;4992741;28;20444;-68
2021/01/31 01:49:40;;;;;;;6.13;2.30;;;-0.30;99.90;;;;;;4990985;28;20495;-68
2021/01/31 01:52:12;;;;;;;6.30;4.23;;;-0.40;99.90;;;;;;4994999;28;20493;-67
2021/01/31 01:54:43;;;;;;;5.37;4.90;;;-0.40;99.90;;;;;;4996745;28;20432;-67
2021/01/31 01:57:12;;;;;;;10.17;5.33;;;-0.40;99.90;;;;;;4996391;28;20512;-68
2021/01/31 01:59:40;;;;;;;7.40;4.60;;;-0.40;99.90;;;;;;4997444;28;20487;-67
2021/01/31 02:02:12;;;;;;;8.70;5.03;;;-0.50;99.90;;;;;;4988987;28;20976;-67
2021/01/31 02:04:39;;;;;;;4.03;3.67;;;-0.40;99.90;;;;;;4991000;28;20532;-67
2021/01/31 02:07:06;;;;;;;3.13;2.60;;;-0.40;99.90;;;;;;4993205;28;20532;-67
2021/01/31 02:09:33;;;;;;;8.23;6.07;;;-0.50;99.90;;;;;;5007380;28;21165;-68
2021/01/31 02:12:03;;;;;;;5.87;4.90;;;-0.40;99.90;;;;;;4998961;28;20436;-67
2021/01/31 02:14:33;;;;;;;3.97;3.23;;;-0.50;99.90;;;;;;4996865;28;20454;-69
2021/01/31 02:17:06;;;;;;;14.23;6.10;;;-0.50;99.90;;;;;;4993260;28;20479;-69
2021/01/31 02:20:16;;;;;;;5.20;3.53;;;-0.60;99.90;;;;;;4993549;28;20481;-70
2021/01/31 02:23:08;;;;;;;3.40;3.10;;;-0.80;99.90;;;;;;4997657;28;20538;-68
2021/01/31 02:25:58;;;;;;;5.27;4.97;;;-0.80;99.90;;;;;;4992973;28;20564;-69
2021/01/31 02:28:49;;;;;;;5.70;3.77;;;-0.90;99.90;;;;;;4999103;28;20539;-67
2021/01/31 02:31:57;;;;;;;4.10;3.70;;;-0.90;99.90;;;;;;4990545;28;20432;-66
2021/01/31 02:34:31;;;;;;;3.50;3.20;;;-0.80;99.90;;;;;;4976419;28;20850;-67
2021/01/31 02:37:10;;;;;;;3.33;3.03;;;-0.90;99.90;;;;;;4992507;28;20467;-66
2021/01/31 02:39:43;;;;;;;6.40;5.07;;;-0.90;99.90;;;;;;4995527;28;20551;-68
2021/01/31 02:42:21;;;;;;;2.80;2.57;;;-0.90;99.90;;;;;;4995670;28;20457;-67
2021/01/31 02:44:54;;;;;;;4.63;2.77;;;-0.90;99.90;;;;;;4994132;28;20431;-67
2021/01/31 02:47:23;;;;;;;5.13;3.57;;;-0.90;99.90;;;;;;4989959;28;20478;-68
2021/01/31 02:49:56;;;;;;;6.73;3.40;;;-0.90;99.90;;;;;;4985813;28;20485;-68
2021/01/31 02:52:28;;;;;;;7.20;2.47;;;-0.90;99.90;;;;;;4988518;28;20461;-68
2021/01/31 02:55:00;;;;;;;8.00;4.50;;;-0.90;99.90;;;;;;4989118;28;20454;-68
2021/01/31 02:57:34;;;;;;;3.43;3.00;;;-1.00;99.90;;;;;;4982335;28;20806;-68
2021/01/31 03:00:08;;;;;;;6.77;5.67;;;-1.00;99.90;;;;;;4993318;28;20477;-68
2021/01/31 03:02:38;;;;;;;4.33;2.60;;;-1.00;99.90;;;;;;4987392;28;20432;-68
2021/01/31 03:05:10;;;;;;;3.23;2.87;;;-1.10;99.90;;;;;;4994843;28;20435;-67
2021/01/31 03:07:42;;;;;;;5.13;4.73;;;-1.00;99.90;;;;;;4991502;28;21935;-67
2021/01/31 03:10:13;;;;;;;10.40;5.30;;;-1.00;99.90;;;;;;4991432;28;21039;-68
2021/01/31 03:12:43;;;;;;;4.13;3.83;;;-1.00;99.90;;;;;;5001599;28;20544;-68
2021/01/31 03:15:12;;;;;;;8.83;6.30;;;-1.10;99.90;;;;;;4995134;28;20563;-67
2021/01/31 03:17:43;;;;;;;2.97;2.57;;;-1.10;99.90;;;;;;4989000;28;20493;-67
2021/01/31 03:20:19;;;;;;;3.30;2.33;;;-1.10;99.90;;;;;;5000468;28;20473;-67
2021/01/31 03:22:49;;;;;;;4.57;2.90;;;-1.20;99.90;;;;;;5002709;28;20726;-67
2021/01/31 03:25:21;;;;;;;6.53;4.40;;;-1.20;99.90;;;;;;4997863;28;20439;-68
2021/01/31 03:27:48;;;;;;;6.93;3.93;;;-1.30;99.90;;;;;;4992089;28;20516;-67
2021/01/31 03:30:16;;;;;;;6.17;4.97;;;-1.30;99.90;;;;;;4981817;28;20527;-67
2021/01/31 03:32:49;;;;;;;20.43;3.80;;;-1.30;99.90;;;;;;4998149;28;20514;-67
2021/01/31 03:35:21;;;;;;;4.27;3.87;;;-1.30;99.90;;;;;;4992940;28;20552;-67
2021/01/31 03:37:53;;;;;;;12.23;3.20;;;-1.30;99.90;;;;;;4996381;28;21065;-67
2021/01/31 03:40:24;;;;;;;4.60;3.33;;;-1.30;99.90;;;;;;4993783;28;20569;-67
2021/01/31 03:42:50;;;;;;;12.70;4.30;;;-1.30;99.90;;;;;;4994314;28;20469;-67
2021/01/31 03:45:26;;;;;;;10.93;4.50;;;-1.30;99.90;;;;;;4979609;28;20548;-67
2021/01/31 03:47:59;;;;;;;5.17;4.50;;;-1.20;99.90;;;;;;4986815;28;20975;-68
2021/01/31 03:50:27;;;;;;;4.50;4.20;;;-1.20;99.90;;;;;;4994129;28;20453;-67
2021/01/31 03:52:54;;;;;;;8.67;4.23;;;-1.20;99.90;;;;;;4997014;28;20974;-68
2021/01/31 03:55:20;;;;;;;2.30;2.20;;;-1.20;99.90;;;;;;4980408;28;20482;-68
2021/01/31 03:57:51;;;;;;;3.60;2.57;;;-1.20;99.90;;;;;;5000657;28;20428;-68
2021/01/31 04:00:21;;;;;;;5.50;5.10;;;-1.30;99.90;;;;;;4990111;28;20448;-67
2021/01/31 04:02:54;;;;;;;7.53;4.23;;;-1.30;99.90;;;;;;4994991;28;20485;-68
2021/01/31 04:05:21;;;;;;;4.80;4.13;;;-1.30;99.90;;;;;;4996379;28;20436;-68
2021/01/31 04:07:51;;;;;;;4.77;2.53;;;-1.30;99.90;;;;;;4995243;28;20686;-66
2021/01/31 04:10:19;;;;;;;5.23;3.67;;;-1.30;99.90;;;;;;4998007;28;21136;-68
2021/01/31 04:12:49;;;;;;;4.57;3.90;;;-1.30;99.90;;;;;;4998551;28;20537;-67
2021/01/31 04:15:28;;;;;;;9.50;4.90;;;-1.30;99.90;;;;;;5000036;28;20849;-67
2021/01/31 04:17:54;;;;;;;4.67;3.60;;;-1.30;99.90;;;;;;4998488;28;20457;-67
2021/01/31 04:20:21;;;;;;;6.53;2.20;;;-1.30;99.90;;;;;;4978399;28;20479;-67
2021/01/31 04:22:48;;;;;;;3.60;3.30;;;-1.40;99.90;;;;;;4993528;28;20923;-68
2021/01/31 04:25:15;;;;;;;3.53;2.47;;;-1.50;99.90;;;;;;4991785;28;20457;-67
2021/01/31 04:27:42;;;;;;;4.73;3.97;;;-1.50;99.90;;;;;;4992758;28;20485;-68
2021/01/31 04:30:10;;;;;;;5.07;3.53;;;-1.50;99.90;;;;;;4983114;28;20488;-67
2021/01/31 04:32:37;;;;;;;6.17;3.47;;;-1.50;99.90;;;;;;4998502;28;21005;-67
2021/01/31 04:35:05;;;;;;;4.23;3.33;;;-1.40;99.90;;;;;;4987274;28;20440;-68
2021/01/31 04:37:31;;;;;;;6.40;3.97;;;-1.40;99.90;;;;;;4992378;28;20560;-67
2021/01/31 04:39:59;;;;;;;4.50;3.30;;;-1.40;99.90;;;;;;4978864;28;20546;-68
2021/01/31 04:42:26;;;;;;;5.20;4.80;;;-1.40;99.90;;;;;;4994181;28;20465;-68
2021/01/31 04:44:52;;;;;;;5.00;4.60;;;-1.40;99.90;;;;;;4957176;28;20519;-68
2021/01/31 04:47:24;;;;;;;7.47;6.87;;;-1.50;99.90;;;;;;4999954;28;20435;-68
2021/01/31 04:50:10;;;;;;;4.27;3.53;;;-1.40;99.90;;;;;;4995717;28;20473;-68
2021/01/31 04:53:06;;;;;;;29.20;4.77;;;-1.50;99.90;;;;;;4994885;28;21636;-68
2021/01/31 04:56:01;;;;;;;4.17;2.73;;;-1.50;99.90;;;;;;4991433;28;20440;-68
2021/01/31 04:58:33;;;;;;;6.87;4.03;;;-1.50;99.90;;;;;;4992035;28;20448;-68
2021/01/31 05:01:04;;;;;;;3.53;3.33;;;-1.80;99.90;;;;;;4993741;28;20550;-68
2021/01/31 05:03:33;;;;;;;9.87;4.30;;;-1.80;99.90;;;;;;4997678;28;20453;-68
2021/01/31 05:06:06;;;;;;;10.93;4.43;;;-1.80;99.90;;;;;;4998275;28;20812;-68
2021/01/31 05:08:33;;;;;;;3.03;2.37;;;-1.80;99.90;;;;;;4991629;28;21110;-67
2021/01/31 05:11:15;;;;;;;5.30;4.47;;;-1.80;99.90;;;;;;4994457;28;20881;-68
2021/01/31 05:13:49;;;;;;;4.43;4.03;;;-1.80;99.90;;;;;;5006424;28;20456;-67
2021/01/31 05:16:17;;;;;;;4.97;3.00;;;-1.80;99.90;;;;;;4999716;28;20481;-68
2021/01/31 05:18:47;;;;;;;6.73;4.20;;;-1.80;99.90;;;;;;4998997;28;20501;-67
2021/01/31 05:21:18;;;;;;;5.40;4.07;;;-1.80;99.90;;;;;;5003358;28;20500;-68
2021/01/31 05:23:49;;;;;;;9.77;4.17;;;-1.60;99.90;;;;;;4995481;28;20505;-67
2021/01/31 05:26:17;;;;;;;4.63;2.40;;;-1.60;99.90;;;;;;4995713;28;20449;-68
2021/01/31 05:28:51;;;;;;;6.33;3.87;;;-1.70;99.90;;;;;;4995457;28;20524;-68
2021/01/31 05:31:21;;;;;;;3.00;2.80;;;-1.70;99.90;;;;;;4998909;28;20480;-68
2021/01/31 05:33:51;;;;;;;3.47;2.80;;;-1.80;99.90;;;;;;5001188;28;20435;-67
2021/01/31 05:36:19;;;;;;;4.20;1.87;;;-1.90;99.90;;;;;;4999639;28;20527;-68
2021/01/31 05:38:47;;;;;;;9.17;3.27;;;-1.80;99.90;;;;;;4993447;28;20456;-67
2021/01/31 05:41:43;;;;;;;8.57;4.60;;;-1.90;99.90;;;;;;4997022;28;20490;-67
2021/01/31 05:44:22;;;;;;;5.40;5.00;;;-1.90;99.90;;;;;;4982645;28;20481;-68
2021/01/31 05:46:52;;;;;;;7.70;4.90;;;-1.90;99.90;;;;;;5001817;28;20507;-67
2021/01/31 05:49:35;;;;;;;5.20;3.70;;;-1.90;99.90;;;;;;5001435;28;20459;-67
2021/01/31 05:52:03;;;;;;;6.57;5.20;;;-1.90;99.90;;;;;;5000400;28;20953;-67
2021/01/31 05:54:33;;;;;;;4.37;3.33;;;-1.90;99.90;;;;;;4996166;28;21440;-67
2021/01/31 05:57:01;;;;;;;7.37;4.07;;;-1.90;99.90;;;;;;4994302;28;20531;-67
2021/01/31 05:59:38;;;;;;;3.17;2.47;;;-2.00;99.90;;;;;;4995669;28;21368;-67
2021/01/31 06:02:05;;;;;;;11.33;4.23;;;-2.10;99.90;;;;;;4994065;28;20432;-66
2021/01/31 06:04:32;;;;;;;5.20;4.03;;;-2.10;99.90;;;;;;4989084;28;20461;-67
2021/01/31 06:07:07;;;;;;;7.03;3.33;;;-2.20;99.90;;;;;;4993079;28;20527;-67
2021/01/31 06:09:42;;;;;;;6.43;3.40;;;-2.10;99.90;;;;;;5003580;28;20466;-67
2021/01/31 06:12:13;;;;;;;12.43;7.37;;;-2.00;99.90;;;;;;5000138;28;20452;-67
2021/01/31 06:14:43;;;;;;;11.60;5.30;;;-2.20;99.90;;;;;;4993279;28;20884;-67
2021/01/31 06:17:18;;;;;;;9.37;3.20;;;-2.10;99.90;;;;;;4996719;28;21124;-66
2021/01/31 06:19:45;;;;;;;8.53;6.27;;;-2.00;99.90;;;;;;4994237;28;20486;-67
2021/01/31 06:22:13;;;;;;;6.47;3.93;;;-2.10;99.90;;;;;;4992803;28;20544;-66
2021/01/31 06:24:47;;;;;;;4.53;3.10;;;-2.00;99.90;;;;;;4999189;28;20457;-66
2021/01/31 06:27:29;;;;;;;8.07;5.93;;;-2.10;99.90;;;;;;4988692;28;20450;-67
2021/01/31 06:30:06;;;;;;;7.00;5.23;;;-2.00;99.90;;;;;;4999914;28;20455;-67
2021/01/31 06:32:34;;;;;;;18.03;6.60;;;-2.10;99.90;;;;;;4995332;28;20810;-67
2021/01/31 06:35:03;;;;;;;8.10;4.87;;;-2.10;99.90;;;;;;4999499;28;20973;-67
2021/01/31 06:37:37;;;;;;;10.50;3.27;;;-2.10;99.90;;;;;;5001794;28;21398;-66
2021/01/31 06:40:17;;;;;;;10.77;4.90;;;-2.00;99.90;;;;;;4998241;28;21029;-67
2021/01/31 06:42:55;;;;;;;7.10;5.30;;;-2.00;99.90;;;;;;5002678;28;20457;-67
2021/01/31 06:45:33;;;;;;;4.37;2.57;;;-2.10;99.90;;;;;;5004162;28;20438;-67
2021/01/31 06:48:14;;;;;;;8.33;4.13;;;-2.20;99.90;;;;;;5001620;28;20490;-67
2021/01/31 06:50:56;;;;;;;9.73;3.57;;;-2.30;99.90;;;;;;5005669;28;20443;-66
2021/01/31 06:53:33;;;;;;;7.63;6.80;;;-2.20;99.90;;;;;;4998906;28;20878;-66
2021/01/31 06:56:32;;;;;;;5.67;4.53;;;-2.10;99.90;;;;;;5003576;28;20535;-67
2021/01/31 06:59:30;;;;;;;4.00;3.70;;;-2.20;99.90;;;;;;5006166;28;20547;-67
2021/01/31 07:02:21;;;;;;;3.43;2.77;;;-2.20;99.90;;;;;;4972033;28;20491;-67
2021/01/31 07:05:13;;;;;;;5.63;4.57;;;-2.30;99.90;;;;;;4993143;28;20598;-67
2021/01/31 07:08:16;;;;;;;18.00;6.70;;;-2.40;99.90;;;;;;4993777;28;20463;-67
2021/01/31 07:11:13;;;;;;;4.23;3.23;;;-2.40;99.90;;;;;;4969005;28;20508;-67
2021/01/31 07:13:56;;;;;;;5.87;5.20;;;-2.40;99.90;;;;;;4997263;28;20524;-67
2021/01/31 07:16:34;;;;;;;2.93;2.67;;;-2.60;99.90;;;;;;4997523;28;20880;-66
2021/01/31 07:19:07;;;;;;;11.77;3.67;;;-2.70;99.90;;;;;;4999056;28;20582;-67
2021/01/31 07:21:37;;;;;;;10.40;5.10;;;-2.60;99.90;;;;;;5001337;28;20535;-67
2021/01/31 07:24:08;;;;;;;3.90;3.43;;;-2.60;99.90;;;;;;4996517;28;20447;-67
2021/01/31 07:26:42;;;;;;;3.57;2.60;;;-2.40;99.90;;;;;;5001491;28;20463;-67
2021/01/31 07:29:15;;;;;;;6.00;4.80;;;-2.30;99.90;;;;;;4999769;28;20554;-68
2021/01/31 07:31:46;;;;;;;7.90;6.23;;;-2.30;99.90;;;;;;5002024;28;20464;-67
2021/01/31 07:34:21;;;;;;;7.60;4.43;;;-2.30;99.90;;;;;;4996956;28;20510;-67
2021/01/31 07:37:08;;;;;;;2.83;2.60;;;-2.30;99.90;;;;;;5002752;28;20956;-68
2021/01/31 07:39:44;;;;;;;5.13;4.47;;;-2.30;99.90;;;;;;4999290;28;20903;-67
2021/01/31 07:42:14;;;;;;;5.87;5.30;;;-2.20;99.90;;;;;;4996203;28;20503;-67
2021/01/31 07:44:42;;;;;;;4.17;3.73;;;-2.00;99.90;;;;;;4992903;28;20436;-67
2021/01/31 07:47:09;;;;;;;8.83;4.10;;;-1.80;99.90;;;;;;4988887;28;20527;-67
2021/01/31 07:50:15;;;;;;;3.40;3.10;;;-1.50;99.90;;;;;;4976269;28;20539;-67
2021/01/31 07:52:49;;;;;;;1.37;1.27;;;-1.40;99.90;;;;;;4950142;28;20552;-66
2021/01/31 07:55:31;;;;;;;4.80;2.43;;;-1.40;99.90;;;;;;4991447;28;20470;-67
2021/01/31 07:58:13;;;;;;;13.80;3.80;;;-1.50;99.90;;;;;;4995786;28;20483;-67
2021/01/31 08:00:41;;;;;;;3.27;2.97;;;-1.40;99.90;;;;;;4996426;28;21474;-67
2021/01/31 08:03:26;;;;;;;5.97;3.60;;;-1.40;99.90;;;;;;5003169;28;20460;-66
2021/01/31 08:05:57;;;;;;;3.10;2.03;;;-1.40;99.90;;;;;;4990621;28;20462;-67
2021/01/31 08:08:43;;;;;;;0.90;0.80;;;-1.50;99.90;;;;;;4989398;28;20487;-67
2021/01/31 08:11:12;;;;;;;1.77;1.67;;;-1.70;99.90;;;;;;4990627;28;20459;-67
2021/01/31 08:13:42;;;;;;;2.13;1.97;;;-1.60;99.90;;;;;;4990800;28;20489;-67
2021/01/31 08:16:40;;;;;;;3.43;2.70;;;-1.60;99.90;;;;;;4988291;28;20496;-67
2021/01/31 08:19:12;;;;;;;3.50;2.97;;;-1.50;99.90;;;;;;4959926;28;20593;-67
2021/01/31 08:21:54;;;;;;;3.93;2.93;;;-1.20;99.90;;;;;;4987515;28;20819;-67
2021/01/31 08:24:59;;;;;;;3.20;2.93;;;-0.90;99.90;;;;;;4986791;28;21199;-69
2021/01/31 08:27:45;;;;;;;3.93;2.40;;;-0.50;99.90;;;;;;4990597;28;20427;-67
2021/01/31 08:30:18;;;;;;;2.80;2.60;;;-0.20;99.90;;;;;;4986858;28;20639;-67
2021/01/31 08:33:21;;;;;;;6.30;3.40;;;0.30;99.90;;;;;;4990491;28;20444;-69
2021/01/31 08:36:04;;;;;;;4.97;4.47;;;0.50;99.90;;;;;;4988017;28;20436;-69
2021/01/31 08:38:48;;;;;;;8.23;4.40;;;0.70;99.90;;;;;;4991338;28;20483;-67
2021/01/31 08:41:47;;;;;;;5.67;3.80;;;1.20;99.90;;;;;;4987559;28;20480;-66
2021/01/31 08:44:44;;;;;;;8.70;4.50;;;1.50;99.90;;;;;;4990284;28;20464;-67
2021/01/31 08:47:12;;;;;;;1.63;1.53;;;1.70;99.90;;;;;;5000634;28;20487;-67
2021/01/31 08:49:39;;;;;;;4.03;2.70;;;1.50;99.90;;;;;;4992008;28;20850;-66
2021/01/31 08:52:11;;;;;;;5.87;4.60;;;1.40;99.90;;;;;;4993435;28;20465;-66
2021/01/31 08:54:37;;;;;;;12.90;4.73;;;1.30;99.90;;;;;;4992003;28;20461;-65
2021/01/31 08:57:06;;;;;;;8.43;5.53;;;1.40;99.90;;;;;;4991659;28;20428;-65
2021/01/31 08:59:36;;;;;;;6.17;4.53;;;1.60;99.90;;;;;;4990673;28;20823;-67
2021/01/31 09:02:17;;;;;;;2.10;1.60;;;2.00;99.90;;;;;;4996597;28;20563;-67
2021/01/31 09:04:45;;;;;;;11.33;7.73;;;2.70;99.90;;;;;;4982713;28;20511;-67
2021/01/31 09:07:19;;;;;;;5.17;3.73;;;3.40;99.90;;;;;;4994840;28;20935;-67
2021/01/31 09:09:54;;;;;;;8.97;5.67;;;4.00;99.90;;;;;;4994079;28;20595;-66
2021/01/31 09:12:22;;;;;;;7.87;5.53;;;5.10;99.90;;;;;;4992944;28;20463;-67
2021/01/31 09:14:53;;;;;;;10.53;6.60;;;6.30;99.90;;;;;;4992242;28;20539;-67
2021/01/31 09:17:29;;;;;;;9.93;5.43;;;6.50;99.90;;;;;;4989102;28;20913;-67
2021/01/31 09:20:12;;;;;;;9.37;5.97;;;6.10;99.90;;;;;;4994068;28;20492;-66
2021/01/31 09:22:42;;;;;;;11.83;6.50;;;5.60;99.90;;;;;;4999957;28;20510;-68
2021/01/31 09:25:11;;;;;;;13.10;7.40;;;5.40;99.90;;;;;;5003557;28;20536;-67
2021/01/31 09:27:46;;;;;;;9.33;6.30;;;5.00;99.90;;;;;;4999174;28;20457;-66
2021/01/31 09:30:17;;;;;;;6.13;5.53;;;4.20;99.90;;;;;;4999554;28;20487;-67
2021/01/31 09:32:47;;;;;;;9.53;7.93;;;3.50;99.90;;;;;;4999232;28;20566;-67
2021/01/31 09:35:20;;;;;;;9.33;5.47;;;4.10;99.90;;;;;;4992126;28;20485;-66
2021/01/31 09:37:47;;;;;;;8.70;5.00;;;5.50;99.90;;;;;;4996728;28;20839;-67
2021/01/31 09:40:16;;;;;;;9.80;5.90;;;6.90;99.90;;;;;;5002056;28;20496;-67
2021/01/31 09:42:44;;;;;;;8.77;5.93;;;7.90;99.90;;;;;;4996779;28;20469;-68
2021/01/31 09:45:28;;;;;;;6.80;4.90;;;9.10;99.90;;;;;;4986247;28;20518;-67
2021/01/31 09:47:55;;;;;;;10.23;6.40;;;9.10;99.90;;;;;;4997196;28;20780;-68
2021/01/31 09:50:22;;;;;;;9.10;5.67;;;9.20;99.90;;;;;;4991437;28;20495;-67
2021/01/31 09:52:51;;;;;;;8.23;6.47;;;8.50;99.90;;;;;;4998014;28;20463;-67
2021/01/31 09:55:39;;;;;;;9.10;6.90;;;7.30;99.90;;;;;;4990623;28;20506;-68
2021/01/31 09:58:17;;;;;;;8.53;4.83;;;6.20;99.90;;;;;;4993401;28;20488;-67
2021/01/31 10:00:43;;;;;;;12.63;7.60;;;5.70;99.90;;;;;;5002623;28;20540;-67
2021/01/31 10:03:21;;;;;;;9.00;6.00;;;5.90;99.90;;;;;;5001857;28;20953;-66
2021/01/31 10:05:48;;;;;;;6.87;4.93;;;6.70;99.90;;;;;;4994697;28;20432;-68
2021/01/31 10:08:18;;;;;;;8.83;5.93;;;6.60;99.90;;;;;;4999355;28;20496;-67
2021/01/31 10:10:46;;;;;;;8.03;5.83;;;6.60;99.90;;;;;;5000718;28;20460;-68
2021/01/31 10:13:22;;;;;;;10.87;5.87;;;7.50;99.90;;;;;;4993823;28;20480;-68
2021/01/31 10:15:55;;;;;;;7.33;6.13;;;8.80;99.90;;;;;;4990021;28;20573;-68
2021/01/31 10:18:30;;;;;;;10.10;7.33;;;8.70;99.90;;;;;;4988789;28;20481;-67
2021/01/31 10:21:30;;;;;;;6.63;4.63;;;8.70;99.90;;;;;;4993780;28;20568;-67
2021/01/31 10:24:04;;;;;;;9.03;6.30;;;8.00;99.90;;;;;;4984214;28;20453;-66
2021/01/31 10:26:31;;;;;;;10.70;7.33;;;7.30;99.90;;;;;;5003868;28;20457;-67
2021/01/31 10:29:00;;;;;;;9.17;6.80;;;7.10;99.90;;;;;;5004606;28;20522;-68
2021/01/31 10:31:29;;;;;;;11.43;6.00;;;7.60;99.90;;;;;;5000732;28;20465;-68
2021/01/31 10:33:57;;;;;;;9.03;5.50;;;8.50;99.90;;;;;;4998156;28;21033;-68
2021/01/31 10:36:35;;;;;;;10.27;6.20;;;8.70;99.90;;;;;;5001503;28;20827;-68
2021/01/31 10:39:25;;;;;;;10.40;7.77;;;8.10;99.90;;;;;;5005230;28;20476;-68
2021/01/31 10:41:52;;;;;;;10.10;8.57;;;8.40;99.90;;;;;;4994328;28;20440;-68
2021/01/31 10:44:25;;;;;;;11.07;7.10;;;8.50;99.90;;;;;;4996993;28;20460;-68
2021/01/31 10:46:52;;;;;;;11.67;8.90;;;8.70;99.90;;;;;;4992429;28;20452;-67
2021/01/31 10:49:19;;;;;;;10.03;7.90;;;9.20;99.90;;;;;;4991692;28;20483;-67
2021/01/31 10:51:46;;;;;;;14.67;7.70;;;9.00;99.90;;;;;;4996784;28;20462;-68
2021/01/31 10:54:18;;;;;;;10.40;7.87;;;9.10;99.90;;;;;;4996502;28;20461;-68
2021/01/31 10:56:45;;;;;;;6.03;5.40;;;9.60;99.90;;;;;;4994739;28;20951;-68
2021/01/31 10:59:12;;;;;;;11.50;8.23;;;10.50;99.90;;;;;;4996081;28;20966;-67
2021/01/31 11:01:43;;;;;;;10.53;6.83;;;11.30;99.90;;;;;;4999110;28;20477;-68
2021/01/31 11:04:10;;;;;;;15.43;6.53;;;12.30;97.70;;;;;;4996705;28;20461;-68
2021/01/31 11:06:37;;;;;;;8.67;7.20;;;12.80;95.10;;;;;;4990289;28;20455;-67
2021/01/31 11:09:05;;;;;;;10.33;7.23;;;12.50;93.40;;;;;;4971731;28;20492;-67
2021/01/31 11:11:35;;;;;;;11.27;7.80;;;12.50;92.80;;;;;;4993019;28;20458;-69
2021/01/31 11:14:05;;;;;;;9.13;7.90;;;12.30;92.90;;;;;;4982577;28;20473;-67
2021/01/31 11:16:31;;;;;;;9.80;6.87;;;12.30;92.10;;;;;;4977149;28;20608;-67
2021/01/31 11:18:59;;;;;;;13.87;8.93;;;11.70;93.20;;;;;;4992054;28;20490;-68
2021/01/31 11:21:27;;;;;;;11.67;7.40;;;11.00;93.90;;;;;;4990037;28;21793;-69
2021/01/31 11:23:55;;;;;;;16.33;9.33;;;11.40;96.00;;;;;;4995349;28;20493;-68
2021/01/31 11:26:22;;;;;;;8.17;6.97;;;12.40;93.00;;;;;;4995683;28;20988;-68
2021/01/31 11:28:50;;;;;;;11.03;9.17;;;12.40;92.10;;;;;;4996929;28;20504;-68
2021/01/31 11:31:16;;;;;;;11.70;8.63;;;11.80;92.30;;;;;;4998277;28;20548;-68
2021/01/31 11:33:43;;;;;;;10.40;7.50;;;12.00;92.50;;;;;;4996091;28;20523;-68
2021/01/31 11:36:10;;;;;;;9.97;5.67;;;12.20;91.40;;;;;;4985364;28;21033;-69
2021/01/31 11:38:37;;;;;;;9.47;6.93;;;12.70;90.30;;;;;;4990107;28;20923;-68
2021/01/31 11:41:04;;;;;;;5.07;3.80;;;12.60;88.80;;;;;;4985711;28;20485;-67
2021/01/31 11:43:30;;;;;;;10.40;5.70;;;12.20;86.00;;;;;;4996216;28;20510;-68
2021/01/31 11:45:58;;;;;;;6.83;5.27;;;11.30;88.80;;;;;;4996084;28;20535;-68
2021/01/31 11:48:25;;;;;;;6.27;5.40;;;10.70;89.10;;;;;;5000816;28;20492;-68
2021/01/31 11:50:52;;;;;;;5.87;4.73;;;10.70;88.10;;;;;;5002805;28;20482;-67
2021/01/31 11:53:18;;;;;;;5.80;3.80;;;10.90;89.00;;;;;;4998180;28;20489;-67
2021/01/31 11:55:46;;;;;;;5.23;3.37;;;10.70;88.80;;;;;;4998246;28;20487;-67
2021/01/31 11:58:13;;;;;;;7.30;4.50;;;10.10;89.50;;;;;;4987404;28;20492;-67
2021/01/31 12:00:40;;;;;;;9.00;6.33;;;9.60;91.30;;;;;;4991801;28;20538;-67
2021/01/31 12:03:08;;;;;;;11.53;5.50;;;9.60;92.30;;;;;;4983964;28;20499;-68
2021/01/31 12:05:35;;;;;;;10.47;6.07;;;10.10;91.30;;;;;;4996145;28;20458;-68
2021/01/31 12:08:02;;;;;;;7.53;5.17;;;10.10;91.30;;;;;;4995184;28;20523;-67
2021/01/31 12:10:29;;;;;;;7.50;5.93;;;10.40;90.40;;;;;;4986391;28;20456;-67
2021/01/31 12:12:55;;;;;;;8.40;6.03;;;11.00;90.10;;;;;;4989528;28;20843;-68
2021/01/31 12:15:24;;;;;;;7.13;6.17;;;11.50;89.40;;;;;;4964984;28;20469;-67
2021/01/31 12:17:54;;;;;;;8.33;4.90;;;11.00;87.10;;;;;;4999081;28;20508;-67
2021/01/31 12:20:21;;;;;;;12.10;7.67;;;12.00;86.40;;;;;;5000571;28;20464;-68
2021/01/31 12:22:48;;;;;;;6.97;6.07;;;11.40;86.00;;;;;;4985034;28;20454;-67
2021/01/31 12:25:17;;;;;;;7.63;5.07;;;12.30;84.30;;;;;;4970306;28;20557;-67
2021/01/31 12:27:46;;;;;;;8.10;5.23;;;12.70;83.30;;;;;;5006509;28;20472;-67
2021/01/31 12:30:14;;;;;;;4.47;3.53;;;12.00;81.70;;;;;;5000871;28;20481;-67
2021/01/31 12:32:41;;;;;;;5.93;4.40;;;11.90;82.70;;;;;;5004685;28;20879;-67
2021/01/31 12:35:08;;;;;;;7.30;4.93;;;11.70;83.80;;;;;;4993737;28;20473;-67
2021/01/31 12:37:36;;;;;;;5.27;4.50;;;12.30;80.60;;;;;;5006062;28;20549;-67
2021/01/31 12:40:05;;;;;;;8.90;5.57;;;12.40;80.30;;;;;;4999819;28;20489;-66
2021/01/31 12:42:32;;;;;;;3.67;2.83;;;12.70;79.80;;;;;;5002236;28;20481;-67
2021/01/31 12:44:58;;;;;;;7.27;4.53;;;12.50;79.60;;;;;;4997357;28;20981;-67
2021/01/31 12:47:25;;;;;;;7.47;4.90;;;11.60;81.00;;;;;;4985470;28;20457;-67
2021/01/31 12:49:52;;;;;;;13.07;5.70;;;12.60;82.70;;;;;;4976251;28;20503;-68
2021/01/31 12:52:19;;;;;;;12.63;6.00;;;12.40;79.40;;;;;;4997722;28;20458;-68
2021/01/31 12:54:47;;;;;;;7.80;6.97;;;13.00;80.50;;;;;;5000679;28;20557;-68
2021/01/31 12:57:13;;;;;;;11.00;6.80;;;13.80;80.20;;;;;;4990726;28;20496;-68
2021/01/31 12:59:40;;;;;;;7.40;5.60;;;15.00;76.40;;;;;;5000443;28;20814;-67
2021/01/31 13:02:07;;;;;;;10.47;6.47;;;14.90;72.90;;;;;;5005307;28;20488;-67
2021/01/31 13:04:33;;;;;;;6.40;5.27;;;14.90;71.90;;;;;;4987563;28;20489;-67
2021/01/31 13:07:00;;;;;;;7.97;7.07;;;14.30;70.50;;;;;;5003977;28;20465;-68
2021/01/31 13:09:30;;;;;;;6.53;4.87;;;13.70;72.50;;;;;;5001717;28;20522;-68
2021/01/31 13:11:58;;;;;;;7.60;5.33;;;13.50;71.80;;;;;;4999589;28;20543;-67
2021/01/31 13:14:25;;;;;;;13.23;5.70;;;12.50;73.70;;;;;;4998635;28;20549;-67